Date,TemperatureHighF,TemperatureAvgF,TemperatureLowF,DewpointHighF,DewpointAvgF,DewpointLowF,HumidityHigh,HumidityAvg,HumidityLow,PressureMaxIn,PressureMinIn,WindSpeedMaxMPH,WindSpeedAvgMPH,GustSpeedMaxMPH,PrecipitationSumIn
2013-1-1,73,60,49,59,55,48,98,83,60,30.22,30.00,8,1,14,0.00
2013-1-2,73,65,59,67,61,56,96,88,79,30.07,29.96,7,1,12,0.02
2013-1-3,61,56,50,60,55,48,97,94,88,30.25,30.05,5,1,10,0.10
2013-1-4,56,52,48,52,48,45,95,89,82,30.33,30.23,9,1,9,0.00
2013-1-5,62,53,44,53,47,38,90,79,72,30.37,30.26,8,2,11,0.00
2013-1-6,61,56,51,56,53,49,97,91,80,30.26,30.12,6,1,8,0.65
2013-1-7,62,55,47,54,50,43,94,84,73,30.30,30.18,12,3,16,0.01
2013-1-8,70,62,58,65,59,54,96,90,83,30.28,30.19,11,2,12,0.00
2013-1-9,74,66,61,70,64,61,99,95,85,30.34,30.23,8,2,10,0.00
2013-1-10,77,68,63,69,66,62,100,92,69,30.35,30.26,8,1,12,0.00
2013-1-11,82,69,60,68,64,60,99,86,54,30.27,30.14,8,0,10,0.00
2013-1-12,81,68,61,68,64,60,99,86,52,30.20,30.09,7,1,8,0.01
2013-1-13,79,68,60,66,63,60,99,84,57,30.17,30.07,7,1,10,0.00
2013-1-14,81,70,60,67,63,59,98,81,55,30.19,30.10,9,1,11,0.01
2013-1-15,81,70,63,68,64,61,98,83,56,30.16,30.04,9,1,12,0.00
2013-1-16,80,72,65,67,64,61,93,79,57,30.08,29.97,7,1,12,0.00
2013-1-17,73,60,44,65,54,35,95,81,60,30.15,29.90,17,4,26,0.00
2013-1-18,57,50,43,46,42,35,82,73,63,30.40,30.15,17,4,23,0.00
2013-1-19,61,54,46,55,49,41,93,83,77,30.36,30.20,10,3,16,0.00
2013-1-20,73,61,54,55,52,49,95,74,46,30.22,30.06,6,1,9,0.00
2013-1-21,70,60,51,52,49,43,93,69,48,30.13,30.01,7,0,9,0.00
2013-1-22,63,55,47,43,34,29,63,46,29,30.30,30.09,10,1,13,0.00
2013-1-23,64,52,42,43,34,27,72,50,34,30.42,30.27,8,1,9,0.00
2013-1-24,72,60,50,54,48,41,84,66,46,30.31,30.18,10,2,15,0.00
2013-1-25,73,62,55,58,52,46,90,71,39,30.33,30.15,10,2,12,0.00
2013-1-26,74,64,55,62,58,50,95,79,65,30.24,30.14,8,1,10,0.00
2013-1-27,67,62,59,59,56,54,91,82,67,30.37,30.21,14,4,17,0.00
2013-1-28,77,66,57,64,61,55,97,83,61,30.37,30.24,10,1,13,0.00
2013-1-29,82,69,61,68,64,60,98,85,58,30.26,30.08,7,1,13,0.00
2013-1-30,83,74,58,66,65,55,93,75,55,30.10,29.76,18,3,22,0.17
2013-1-31,60,54,48,55,38,28,91,57,32,30.26,29.87,13,2,23,0.04
2013-2-1,64,53,44,38,32,24,61,46,33,30.33,30.24,10,1,15,0.00
2013-2-2,66,51,39,47,32,24,89,51,30,30.36,30.15,8,1,10,0.00
2013-2-3,66,55,46,47,36,28,86,52,25,30.19,30.03,10,2,14,0.00
2013-2-4,64,55,45,48,41,35,86,61,35,30.13,30.04,6,0,8,0.00
2013-2-5,70,58,46,52,46,42,88,66,44,30.11,29.99,6,0,7,0.00
2013-2-6,70,63,59,59,56,50,91,79,65,30.15,30.04,8,0,9,0.00
2013-2-7,76,67,62,65,62,58,95,84,64,30.10,29.78,10,2,13,0.02
2013-2-8,70,62,57,65,56,52,92,80,63,30.09,29.82,10,2,12,0.00
2013-2-9,63,57,49,53,48,42,90,74,51,30.26,30.08,14,3,16,0.00
2013-2-10,75,64,54,59,55,49,92,73,52,30.31,30.16,10,1,16,0.00
2013-2-11,80,71,64,64,62,59,88,75,56,30.18,30.04,10,2,13,0.00
2013-2-12,81,70,65,68,65,62,97,84,59,30.07,29.84,15,2,16,0.00
2013-2-13,75,71,61,71,65,50,95,83,52,29.92,29.78,13,3,16,0.24
2013-2-14,61,53,48,56,49,44,93,86,79,30.09,29.90,5,0,7,0.16
2013-2-15,63,53,44,49,45,40,90,77,56,30.11,29.97,8,1,11,0.00
2013-2-16,59,49,40,49,42,27,93,78,53,30.14,29.92,13,1,18,0.05
2013-2-17,54,43,33,27,18,9,64,40,18,30.36,30.14,10,1,13,0.00
2013-2-18,62,48,32,45,34,21,86,61,37,30.42,30.23,12,1,15,0.00
2013-2-19,76,62,47,62,53,43,91,74,48,30.24,29.99,15,3,19,0.00
2013-2-20,68,57,48,58,40,26,90,57,29,30.18,30.05,8,1,10,0.00
2013-2-21,69,58,47,58,48,37,91,71,41,30.17,30.04,9,1,10,0.00
2013-2-22,82,71,62,68,65,58,97,82,54,30.08,29.97,9,1,13,0.00
2013-2-23,81,72,63,68,66,61,97,82,59,29.98,29.82,15,3,19,0.48
2013-2-24,73,65,60,63,56,35,97,78,26,30.00,29.83,9,1,10,0.15
2013-2-25,68,63,60,67,61,56,97,94,84,29.95,29.79,14,4,19,1.43
2013-2-26,78,69,62,69,63,54,98,82,46,29.82,29.65,16,4,19,0.34
2013-2-27,70,61,54,56,48,43,83,64,40,29.97,29.82,14,2,16,0.00
2013-2-28,69,59,51,48,43,34,81,57,37,29.98,29.84,13,2,18,0.00
2013-3-1,60,53,48,39,37,34,65,54,42,30.01,29.90,9,1,12,0.00
2013-3-2,54,47,41,37,33,30,81,61,42,30.03,29.92,16,2,20,0.00
2013-3-3,47,42,38,33,30,27,80,64,48,30.14,29.99,13,1,15,0.00
2013-3-4,63,49,36,45,31,22,75,54,28,30.23,30.10,9,1,11,0.00
2013-3-5,74,61,47,58,47,39,81,62,31,30.18,29.88,14,4,17,0.00
2013-3-6,66,53,45,61,37,28,88,57,32,30.14,29.85,16,4,19,0.01
2013-3-7,64,49,38,44,37,31,86,63,37,30.24,30.13,8,1,10,0.00
2013-3-8,68,54,44,51,44,38,93,73,34,30.24,30.15,15,2,15,0.00
2013-3-9,66,56,48,52,48,46,93,76,51,30.28,30.18,13,2,15,0.00
2013-3-10,74,63,53,58,54,51,95,75,50,30.23,30.12,14,2,16,0.00
2013-3-11,76,67,57,61,58,55,93,74,53,30.13,29.88,10,1,14,0.01
2013-3-12,69,65,57,66,59,48,97,82,54,30.01,29.82,8,1,10,0.06
2013-3-13,70,60,50,48,37,31,72,46,24,30.19,30.01,9,1,13,0.00
2013-3-14,61,52,45,39,32,26,77,47,29,30.31,30.16,9,1,13,0.00
2013-3-15,72,57,43,48,38,26,82,52,29,30.29,30.11,6,1,10,0.00
2013-3-16,78,65,52,53,49,42,87,59,34,30.16,29.98,11,2,14,0.00
2013-3-17,77,66,53,56,50,44,91,59,32,30.12,29.97,10,1,12,0.00
2013-3-18,79,70,62,65,60,54,87,74,56,30.05,29.84,9,1,10,0.00
2013-3-19,80,70,62,65,60,57,89,70,47,30.01,29.87,10,1,21,0.00
2013-3-20,66,61,53,60,53,47,93,75,56,30.02,29.84,15,2,17,0.19
2013-3-21,68,56,46,52,35,23,94,51,19,29.96,29.85,9,1,12,0.00
2013-3-22,64,57,50,50,39,31,77,53,40,30.06,29.93,11,3,16,0.00
2013-3-23,68,61,56,66,59,50,99,92,77,30.00,29.78,14,1,23,1.80
2013-3-24,83,71,62,71,66,61,99,86,56,29.81,29.51,13,3,21,0.16
2013-3-25,69,60,50,62,38,25,85,48,24,30.03,29.60,16,3,17,0.00
2013-3-26,56,49,41,31,28,24,56,45,33,30.25,30.03,14,2,21,0.00
2013-3-27,60,49,38,35,31,28,69,50,33,30.31,30.20,6,1,10,0.00
2013-3-28,67,55,44,43,36,25,76,51,21,30.31,30.20,10,1,11,0.00
2013-3-29,72,59,47,48,42,33,86,58,25,30.34,30.19,9,1,12,0.00
2013-3-30,76,63,48,55,46,39,86,57,28,30.27,30.09,10,1,12,0.00
2013-3-31,79,69,59,58,53,45,77,58,45,30.13,29.95,10,3,13,0.00
2013-4-1,80,71,63,65,62,58,91,75,54,29.99,29.87,8,2,12,0.00
2013-4-2,75,68,60,62,52,44,89,60,34,30.11,29.96,9,2,13,0.00
2013-4-3,80,66,58,64,60,55,96,82,48,30.09,30.01,14,2,15,0.26
2013-4-4,76,70,65,70,66,64,98,87,71,30.06,29.84,12,2,16,0.12
2013-4-5,69,60,54,65,57,52,97,92,84,30.03,29.80,8,1,11,0.35
2013-4-6,67,60,51,58,53,48,89,78,55,30.18,30.02,16,3,17,0.01
2013-4-7,76,67,59,64,59,54,95,77,54,30.19,30.09,10,0,12,0.00
2013-4-8,82,68,58,65,61,56,97,78,50,30.16,30.07,10,1,13,0.00
2013-4-9,81,71,62,68,64,61,98,79,55,30.19,30.08,9,1,11,0.00
2013-4-10,81,71,60,67,64,58,98,79,61,30.14,29.99,10,1,11,0.00
2013-4-11,86,76,70,73,70,67,96,84,58,29.99,29.78,8,1,12,0.15
2013-4-12,85,77,72,74,71,67,97,82,56,29.86,29.73,15,3,18,0.01
2013-4-13,81,72,63,69,55,48,88,58,34,30.01,29.86,6,1,10,0.00
2013-4-14,75,66,62,66,62,57,98,87,61,30.02,29.85,9,1,15,0.72
2013-4-15,84,71,63,68,65,62,99,84,55,30.11,29.81,11,2,14,0.11
2013-4-16,80,71,66,70,67,64,97,86,66,30.18,30.08,14,2,16,0.02
2013-4-17,76,71,66,70,67,65,96,87,75,30.17,30.09,9,2,10,0.02
2013-4-18,86,75,66,70,68,65,97,79,53,30.09,29.95,9,1,11,0.01
2013-4-19,88,78,67,73,71,64,93,79,54,29.99,29.84,12,2,14,0.02
2013-4-20,67,57,50,64,53,48,95,87,76,30.20,29.98,9,1,12,0.01
2013-4-21,69,64,59,63,59,52,91,82,74,30.20,30.11,18,5,24,0.00
2013-4-22,66,63,60,64,60,55,96,89,74,30.16,30.05,20,4,20,0.01
2013-4-23,70,64,58,59,57,55,92,80,64,30.17,30.07,10,2,14,0.00
2013-4-24,83,70,58,65,61,56,97,75,44,30.16,30.07,8,0,10,0.00
2013-4-25,84,75,63,68,65,61,94,73,49,30.19,30.09,7,0,7,0.00
2013-4-26,78,71,65,67,62,54,88,73,61,30.29,30.15,16,3,16,0.00
2013-4-27,80,72,64,66,62,57,93,72,47,30.25,30.14,10,2,14,0.00
2013-4-28,82,74,67,68,65,63,92,75,55,30.17,29.98,13,1,13,0.01
2013-4-29,82,73,66,68,66,64,95,80,60,30.02,29.90,8,0,14,0.00
2013-4-30,83,71,65,69,66,63,98,85,56,30.03,29.93,10,1,14,0.17
2013-5-1,76,70,67,70,66,62,94,87,79,30.06,29.97,17,4,21,0.00
2013-5-2,70,69,68,69,67,65,98,95,88,30.03,29.90,16,3,19,1.84
2013-5-3,71,68,65,67,65,61,97,90,71,29.91,29.82,19,6,25,1.23
2013-5-4,70,68,65,69,66,62,98,94,78,29.83,29.68,16,4,21,0.88
2013-5-5,77,69,60,70,58,50,98,73,40,29.88,29.71,9,1,11,0.00
2013-5-6,72,65,57,60,52,46,86,62,42,29.98,29.84,10,2,11,0.00
2013-5-7,78,67,59,62,57,53,85,70,47,30.01,29.90,11,2,13,0.03
2013-5-8,80,71,61,63,59,56,94,68,46,30.09,29.99,7,1,10,0.00
2013-5-9,84,74,65,66,62,59,94,68,43,30.12,30.04,7,0,7,0.00
2013-5-10,89,77,64,70,64,59,92,68,40,30.12,29.97,8,1,12,0.00
2013-5-11,88,76,70,72,68,64,94,79,54,30.03,29.90,14,1,16,0.21
2013-5-12,84,75,68,69,66,57,96,74,50,30.01,29.91,8,1,11,0.00
2013-5-13,78,72,64,57,47,38,61,43,24,30.14,29.98,8,1,12,0.00
2013-5-14,79,70,60,54,44,35,68,40,22,30.24,30.14,8,1,9,0.00
2013-5-15,84,72,60,61,57,53,92,61,36,30.22,30.06,5,0,9,0.00
2013-5-16,85,76,68,68,64,60,80,68,47,30.12,30.00,7,1,10,0.00
2013-5-17,85,76,67,69,65,52,90,71,36,30.10,30.03,11,1,13,0.00
2013-5-18,88,77,69,73,70,65,95,79,51,30.12,30.01,9,1,11,0.19
2013-5-19,88,77,69,75,71,66,98,82,58,30.09,29.98,9,1,10,0.02
2013-5-20,83,76,70,74,71,68,98,87,69,30.09,30.00,8,0,10,0.20
2013-5-21,81,74,71,74,71,67,98,89,72,30.05,29.93,8,0,10,0.12
2013-5-22,82,76,69,74,71,68,98,86,72,29.99,29.90,8,1,10,0.00
2013-5-23,90,80,71,73,70,66,96,74,47,29.97,29.88,9,0,9,0.00
2013-5-24,89,81,73,74,63,54,93,59,32,30.10,29.93,8,1,12,0.00
2013-5-25,79,75,68,65,57,53,79,56,42,30.25,30.09,13,2,13,0.00
2013-5-26,83,73,62,64,57,50,87,60,33,30.23,30.14,8,1,13,0.00
2013-5-27,85,74,64,66,63,60,89,70,49,30.20,30.13,9,1,13,0.00
2013-5-28,83,76,68,69,66,64,87,72,57,30.17,30.11,12,2,15,0.00
2013-5-29,86,78,72,74,71,68,91,80,65,30.16,30.09,13,2,15,0.00
2013-5-30,86,79,74,74,72,70,93,80,63,30.17,30.08,10,2,17,0.01
2013-5-31,86,79,73,73,71,70,94,79,61,30.15,30.07,11,2,16,0.01
2013-6-1,86,79,73,74,72,69,94,78,60,30.10,30.01,11,2,14,0.13
2013-6-2,88,80,74,76,74,73,98,85,67,30.05,29.87,8,1,13,0.01
2013-6-3,92,80,75,78,74,72,95,84,56,29.95,29.83,7,0,10,0.12
2013-6-4,86,79,74,77,74,73,95,86,70,30.01,29.91,6,1,8,0.01
2013-6-5,84,77,73,74,73,71,97,89,69,30.00,29.92,7,0,8,0.52
2013-6-6,78,74,72,76,73,70,98,96,93,29.93,29.53,11,1,23,1.43
2013-6-7,88,79,72,76,73,70,97,82,60,29.90,29.55,14,4,20,0.07
2013-6-8,92,81,75,77,74,70,96,79,49,30.07,29.90,8,1,9,0.00
2013-6-9,90,79,74,78,74,72,96,87,65,30.11,30.02,8,0,14,0.12
2013-6-10,91,82,75,77,75,73,97,81,58,30.09,29.98,5,0,9,0.01
2013-6-11,92,83,77,77,75,73,92,76,56,30.07,29.97,6,1,7,0.00
2013-6-12,95,86,76,78,75,71,94,72,47,30.05,29.93,6,1,7,0.00
2013-6-13,95,85,79,79,77,72,91,77,53,29.98,29.83,8,1,10,0.01
2013-6-14,91,81,71,78,76,69,96,86,64,29.93,29.76,8,2,13,1.84
2013-6-15,86,82,76,74,70,67,92,69,56,30.08,29.93,11,2,14,0.01
2013-6-16,86,80,73,74,71,69,88,75,61,30.12,30.03,8,1,10,0.00
2013-6-17,93,83,78,79,76,73,92,78,56,30.08,29.93,8,0,10,0.00
2013-6-18,92,84,76,75,74,71,92,72,51,30.02,29.89,9,2,13,0.00
2013-6-19,92,84,77,77,74,70,91,75,50,30.02,29.90,9,1,11,0.01
2013-6-20,89,80,72,77,74,69,96,84,64,30.09,29.97,15,1,17,1.10
2013-6-21,86,79,76,75,74,72,93,84,66,30.12,30.03,11,1,15,0.02
2013-6-22,86,79,75,76,74,72,95,86,70,30.12,30.06,10,0,13,0.08
2013-6-23,89,81,74,78,74,72,97,82,59,30.15,30.07,8,1,11,0.02
2013-6-24,88,81,76,77,75,72,95,81,62,30.19,30.08,10,1,12,0.21
2013-6-25,91,82,76,79,74,68,94,80,52,30.16,30.03,6,0,9,0.19
2013-6-26,93,80,73,77,75,69,95,83,53,30.08,29.98,10,0,14,0.37
2013-6-27,93,83,75,78,74,71,90,77,57,30.01,29.86,6,1,8,0.00
2013-6-28,91,81,78,77,75,72,90,81,62,29.92,29.77,10,2,16,0.00
2013-6-29,86,81,78,78,75,73,94,83,70,29.81,29.73,11,2,14,0.10
2013-6-30,90,79,75,77,75,72,95,87,63,29.85,29.76,7,1,10,0.34
2013-7-1,84,77,73,77,74,72,98,91,76,30.01,29.82,8,1,14,0.68
2013-7-2,87,76,72,77,74,72,99,93,69,30.09,29.97,11,0,15,0.14
2013-7-3,88,79,73,78,75,71,96,88,69,30.13,30.06,13,1,13,0.38
2013-7-4,89,80,73,78,74,71,96,83,65,30.17,30.08,11,1,16,0.21
2013-7-5,89,81,74,79,74,72,96,82,63,30.16,30.09,10,1,15,0.01
2013-7-6,89,82,75,76,75,74,95,80,61,30.13,30.05,10,1,15,0.00
2013-7-7,90,82,75,77,74,71,95,79,61,30.14,30.07,9,1,12,0.00
2013-7-8,90,82,76,77,75,72,95,79,59,30.17,30.08,8,1,10,0.00
2013-7-9,90,82,76,77,74,70,95,78,53,30.17,30.06,10,1,13,0.00
2013-7-10,90,82,74,76,74,71,96,78,54,30.10,29.95,7,1,9,0.00
2013-7-11,93,82,76,76,74,70,93,79,48,30.01,29.85,8,1,17,0.05
2013-7-12,89,79,77,77,75,72,93,87,62,29.93,29.87,10,0,12,0.03
2013-7-13,87,77,72,77,74,71,97,90,69,30.00,29.89,6,0,9,0.71
2013-7-14,85,78,72,76,73,71,99,87,70,30.12,29.97,8,1,11,0.01
2013-7-15,86,79,74,79,75,72,96,88,71,30.16,30.08,16,2,18,0.19
2013-7-16,87,82,77,78,76,74,93,82,69,30.19,30.13,11,2,14,0.06
2013-7-17,88,82,78,77,75,71,95,79,59,30.19,30.08,10,2,12,0.00
2013-7-18,88,82,76,76,74,72,95,80,60,30.12,30.03,9,1,11,0.00
2013-7-19,91,79,74,76,74,72,96,84,58,30.11,30.03,13,1,22,0.70
2013-7-20,88,78,74,78,74,71,94,88,70,30.09,30.01,12,0,12,0.11
2013-7-21,91,80,74,78,74,71,96,84,60,30.09,30.00,17,1,19,0.05
2013-7-22,91,80,75,77,76,72,95,88,59,30.11,30.01,17,2,21,0.44
2013-7-23,90,80,76,78,75,72,93,86,67,30.02,29.90,10,2,13,0.00
2013-7-24,87,79,74,77,74,70,96,85,72,29.91,29.80,9,2,11,0.12
2013-7-25,90,82,74,77,74,71,93,80,59,29.94,29.81,7,1,8,0.00
2013-7-26,92,84,77,78,76,73,95,79,56,30.00,29.92,9,1,12,0.00
2013-7-27,92,80,73,78,76,71,96,86,58,29.99,29.85,10,0,12,1.20
2013-7-28,90,80,73,79,75,71,97,87,56,30.04,29.90,8,0,11,2.11
2013-7-29,94,83,76,78,75,72,92,78,51,30.14,30.01,8,0,9,0.01
2013-7-30,92,83,77,78,76,73,89,82,60,30.16,30.07,7,0,10,0.15
2013-7-31,93,79,73,79,76,72,97,90,60,30.11,30.02,6,0,9,1.53
2013-8-1,92,78,72,78,74,71,98,90,62,30.03,29.92,13,0,19,1.35
2013-8-2,93,82,74,79,75,72,99,82,55,30.03,29.93,9,1,11,0.00
2013-8-3,90,82,77,80,77,74,94,84,65,30.04,29.96,8,0,10,0.12
2013-8-4,94,85,78,79,77,73,95,77,53,30.03,29.91,6,0,9,0.00
2013-8-5,94,86,80,79,78,74,93,78,54,29.98,29.88,9,1,14,0.00
2013-8-6,91,84,80,78,78,76,94,82,63,29.99,29.89,8,1,11,0.00
2013-8-7,88,83,80,78,77,75,91,82,68,30.00,29.93,11,2,12,0.00
2013-8-8,89,82,77,79,77,72,96,84,66,30.05,29.94,10,1,11,0.53
2013-8-9,92,82,77,81,76,74,98,84,61,30.08,29.97,8,0,11,0.52
2013-8-10,93,83,77,78,76,74,97,82,56,30.13,30.05,10,1,13,0.00
2013-8-11,94,85,79,78,76,72,94,77,53,30.15,30.05,6,0,11,0.00
2013-8-12,96,86,77,81,77,75,95,76,55,30.11,29.97,9,0,9,0.41
2013-8-13,95,86,78,79,76,72,96,74,47,30.02,29.87,5,1,7,0.01
2013-8-14,96,84,72,79,76,70,98,79,49,29.98,29.84,8,1,13,2.00
2013-8-15,94,81,74,78,76,73,98,85,54,30.02,29.89,7,0,14,0.91
2013-8-16,88,78,73,77,75,72,99,91,66,30.04,29.93,13,0,16,0.78
2013-8-17,88,80,76,80,77,75,98,90,69,30.10,29.99,8,0,9,0.46
2013-8-18,90,82,75,81,77,74,97,86,67,30.11,30.02,11,1,13,0.06
2013-8-19,91,83,78,79,77,75,95,84,64,30.09,29.95,7,0,10,0.02
2013-8-20,92,83,77,79,76,73,96,81,61,30.11,30.00,8,1,13,0.00
2013-8-21,88,82,78,79,77,74,95,86,69,30.16,30.07,8,1,14,0.27
2013-8-22,82,77,73,79,75,71,97,92,86,30.15,30.01,10,0,15,0.72
2013-8-23,86,79,76,80,76,75,97,92,75,30.04,29.98,7,0,9,0.15
2013-8-24,84,79,74,78,75,74,98,89,78,30.13,30.01,8,1,11,0.00
2013-8-25,83,79,75,78,74,72,93,87,78,30.19,30.11,14,3,18,0.20
2013-8-26,85,80,73,77,74,72,95,84,70,30.18,30.06,13,2,16,0.07
2013-8-27,87,81,76,76,72,67,92,75,55,30.09,29.99,10,1,10,0.00
2013-8-28,90,81,73,73,71,68,95,73,52,30.05,29.95,5,0,8,0.00
2013-8-29,92,84,76,75,72,68,86,68,47,30.01,29.89,7,1,11,0.00
2013-8-30,95,84,77,78,75,70,89,76,45,29.95,29.84,7,0,10,0.11
2013-8-31,92,80,74,78,75,70,96,86,52,29.95,29.84,11,0,23,0.09
2013-9-1,92,82,76,78,75,73,95,82,54,29.97,29.85,8,1,12,0.19
2013-9-2,92,82,77,78,75,74,94,81,59,29.98,29.86,7,1,12,0.05
2013-9-3,91,84,77,78,76,74,94,79,61,29.98,29.88,7,1,9,0.00
2013-9-4,94,84,78,78,76,72,92,77,51,30.06,29.96,9,0,13,0.01
2013-9-5,94,82,77,80,76,73,92,82,57,30.08,29.98,9,0,10,0.33
2013-9-6,89,80,75,78,75,72,95,87,66,30.04,29.96,9,1,15,0.16
2013-9-7,87,80,73,75,73,67,97,80,55,30.02,29.94,13,2,15,0.00
2013-9-8,87,80,73,74,71,66,95,74,50,29.98,29.90,9,1,12,0.00
2013-9-9,88,81,74,75,71,67,91,74,50,30.06,29.95,15,1,15,0.00
2013-9-10,88,82,76,74,72,69,90,73,55,30.13,30.03,13,2,16,0.00
2013-9-11,88,81,76,76,74,72,91,79,62,30.11,30.02,11,2,15,0.02
2013-9-12,89,81,76,76,74,71,93,80,60,30.04,29.88,8,1,9,0.00
2013-9-13,92,84,77,76,73,69,89,72,47,29.91,29.76,6,0,6,0.00
2013-9-14,93,82,76,79,74,71,96,79,50,29.99,29.80,8,0,11,0.80
2013-9-15,90,82,75,78,75,73,94,80,59,30.08,29.97,8,1,13,0.00
2013-9-16,90,82,77,78,76,73,96,81,59,30.08,29.98,9,1,11,0.00
2013-9-17,85,80,75,77,75,72,96,86,69,30.09,29.99,13,2,17,0.32
2013-9-18,82,77,73,75,73,70,98,87,72,30.10,30.02,15,3,19,2.93
2013-9-19,82,78,74,76,73,70,96,85,72,30.09,30.01,10,1,13,0.39
2013-9-20,85,78,71,72,70,70,96,80,62,30.05,29.92,8,1,10,0.00
2013-9-21,89,79,70,74,71,67,97,78,55,29.94,29.73,7,0,7,0.00
2013-9-22,83,77,74,76,73,72,95,88,77,29.84,29.72,6,1,10,0.16
2013-9-23,82,77,73,76,73,71,96,90,79,29.95,29.82,6,0,8,0.00
2013-9-24,82,76,75,77,74,73,98,94,82,29.95,29.84,7,1,10,0.45
2013-9-30,75,75,74,65,65,64,73,71,68,30.03,29.97,5,1,8,0.00
2013-10-1,79,74,70,69,66,64,84,75,62,30.09,30.00,9,1,10,0.00
2013-10-2,81,74,67,70,67,64,92,80,63,30.10,30.04,11,2,14,0.00
2013-10-3,83,77,71,75,72,68,93,85,73,30.09,30.00,12,2,12,0.00
2013-10-4,86,79,74,76,74,72,97,85,64,30.09,30.01,10,1,11,0.00
2013-10-5,84,78,74,76,73,72,96,86,71,30.07,29.98,9,2,12,0.00
2013-10-6,83,78,74,77,75,73,97,90,77,30.00,29.85,6,0,8,0.94
2013-10-7,86,77,73,76,74,72,96,89,63,29.87,29.74,5,0,7,0.02
2013-10-8,80,73,66,75,71,64,97,94,83,30.01,29.77,12,2,15,1.81
2013-10-9,72,65,61,66,62,60,97,92,78,30.09,29.99,8,1,10,0.01
2013-10-10,82,71,63,66,63,60,96,78,49,30.07,29.95,6,0,11,0.00
2013-10-11,84,74,67,68,64,60,94,74,46,30.04,29.92,6,0,7,0.00
2013-10-12,85,75,65,66,63,60,92,70,43,30.02,29.94,7,0,9,0.00
2013-10-13,85,74,66,70,65,61,91,75,46,30.08,30.00,13,1,14,0.00
2013-10-14,77,72,67,69,67,65,93,85,74,30.07,29.99,10,2,14,0.00
2013-10-15,71,70,68,68,68,66,96,93,89,30.01,29.94,8,2,13,0.23
2013-10-16,81,73,66,72,68,64,93,85,70,29.98,29.91,9,1,10,0.00
2013-10-17,87,76,68,73,70,66,97,81,56,29.97,29.87,6,0,7,0.00
2013-10-18,88,76,72,74,72,70,94,86,61,29.98,29.89,6,0,7,0.00
2013-10-21,75,75,75,72,72,72,92,91,91,29.98,29.96,5,1,8,0.00
2013-10-22,79,74,71,76,72,69,97,93,85,29.97,29.81,9,1,10,0.49
2013-10-23,76,68,63,69,58,46,97,73,42,30.04,29.81,9,1,15,0.21
2013-10-24,70,61,53,54,47,41,87,61,45,30.20,30.04,9,1,13,0.00
2013-10-25,73,62,57,55,51,45,90,69,48,30.27,30.17,8,1,9,0.00
2013-10-26,71,61,53,57,53,48,89,75,52,30.26,30.13,8,1,10,0.00
2013-10-27,73,62,51,55,50,41,94,68,34,30.18,30.09,6,0,8,0.00
2013-10-28,77,66,56,62,58,52,93,77,57,30.24,30.12,8,1,10,0.00
2013-10-29,76,69,62,67,63,60,93,82,58,30.29,30.20,11,2,14,0.00
2013-10-30,78,71,65,68,65,62,91,81,70,30.27,30.16,11,2,14,0.00
2013-10-31,85,75,69,71,68,65,96,81,56,30.17,29.97,7,0,9,0.01
2013-11-1,82,76,71,72,70,68,93,83,66,30.00,29.81,13,2,14,0.00
2013-11-2,77,68,62,73,64,56,97,86,57,29.97,29.77,9,1,11,1.79
2013-11-3,69,62,54,57,51,43,83,67,43,30.21,29.96,14,2,17,0.00
2013-11-4,73,64,56,64,58,51,93,79,68,30.27,30.19,18,4,26,0.05
2013-11-5,69,66,63,68,64,62,97,93,85,30.27,30.19,21,4,24,0.09
2013-11-6,77,70,66,71,67,65,97,92,78,30.19,30.08,11,2,16,0.02
2013-11-7,81,72,67,68,67,64,97,85,61,30.08,29.96,6,0,8,0.00
2013-11-8,70,61,52,64,51,45,81,70,61,30.22,30.03,16,4,22,0.00
2013-11-9,74,65,56,63,59,53,94,81,60,30.25,30.17,11,2,15,0.00
2013-11-10,75,66,60,66,62,58,99,86,67,30.23,30.12,8,1,11,0.00
2013-11-11,74,66,59,64,60,54,95,83,62,30.21,30.12,9,2,10,0.00
2013-11-12,75,68,61,64,59,48,96,76,48,30.16,30.03,12,1,15,0.00
2013-11-13,61,50,45,48,40,35,79,69,60,30.45,30.16,18,5,24,0.00
2013-11-14,64,55,44,57,50,36,94,83,71,30.41,30.24,13,2,15,0.00
2013-11-15,67,63,58,66,61,56,96,94,88,30.25,30.07,5,0,7,0.06
2013-11-16,75,68,62,67,65,61,99,90,72,30.19,30.09,13,2,14,0.01
2013-11-17,81,73,67,74,70,66,98,91,75,30.12,29.99,7,0,8,0.22
2013-11-18,78,72,69,74,70,68,98,94,84,30.02,29.89,7,1,10,0.32
2013-11-19,71,64,56,70,55,44,98,73,55,30.06,29.91,17,4,22,0.00
2013-11-20,70,65,61,64,61,57,97,88,81,30.20,30.03,15,4,19,0.02
2013-11-21,73,66,63,68,64,62,97,93,82,30.26,30.17,11,3,15,0.00
2013-11-22,78,70,65,70,66,64,98,88,69,30.26,30.13,10,1,13,0.00
2013-11-23,81,70,62,69,64,60,98,85,57,30.14,30.00,5,0,11,0.07
2013-11-24,65,57,53,60,49,40,86,74,59,30.36,30.07,19,6,25,0.00
2013-11-25,68,61,49,61,55,43,91,80,70,30.35,30.12,19,4,19,0.00
2013-11-26,76,71,66,73,68,60,97,91,79,30.12,29.68,11,1,18,1.07
2013-11-27,71,55,40,70,50,34,97,83,71,30.25,29.61,16,4,21,0.08
2013-11-28,55,44,33,45,37,28,84,76,67,30.43,30.25,11,2,14,0.00
2013-11-29,62,52,44,52,46,38,87,79,64,30.45,30.37,15,3,17,0.00
2013-11-30,60,56,54,57,53,49,93,90,81,30.40,30.25,11,3,18,0.00
2013-12-1,69,59,53,62,55,50,95,88,78,30.25,30.00,11,1,13,0.00
2013-12-2,69,60,54,58,55,52,97,86,61,30.00,29.83,7,1,8,0.00
2013-12-3,76,62,51,62,57,50,98,84,59,29.99,29.89,8,0,9,0.00
2013-12-4,80,68,58,68,64,57,98,88,66,30.10,29.95,5,0,6,0.00
2013-12-5,84,71,60,69,65,59,99,84,58,30.18,30.07,11,0,11,0.00
2013-12-6,84,73,65,70,67,64,97,83,62,30.16,30.08,8,1,14,0.00
2013-12-7,83,73,68,71,68,66,99,85,61,30.22,30.12,7,1,8,0.00
2013-12-8,70,65,63,66,64,62,98,95,89,30.26,30.15,10,3,11,0.00
2013-12-9,84,71,63,71,67,62,100,87,63,30.19,30.06,7,0,12,0.01
2013-12-10,78,69,56,71,65,45,96,87,67,30.25,30.02,11,2,14,0.35
2013-12-13,59,57,57,56,55,54,94,92,88,30.21,30.15,2,0,4,0.00
2013-12-14,77,67,57,70,64,55,97,92,77,30.15,29.88,10,1,19,0.59
2013-12-15,67,60,48,66,57,43,98,90,78,30.18,29.85,9,1,14,0.29
2013-12-16,59,48,39,45,41,35,93,78,54,30.28,30.16,7,0,9,0.00
2013-12-17,67,52,42,47,42,38,95,73,35,30.28,30.16,4,0,6,0.00
2013-12-18,64,54,46,45,38,26,89,58,24,30.32,30.20,10,0,11,0.00
2013-12-19,72,56,42,58,50,41,96,84,59,30.32,30.21,8,1,10,0.00
2013-12-20,75,62,51,63,58,51,99,86,65,30.24,30.14,8,1,11,0.00
2013-12-21,83,72,62,70,66,60,97,84,58,30.15,30.02,9,1,13,0.00
2013-12-22,83,75,69,72,70,68,97,86,68,30.14,30.05,12,1,14,0.00
2013-12-23,81,74,62,71,69,60,97,86,69,30.15,30.05,11,2,14,0.01
2013-12-24,62,55,48,60,44,32,93,68,42,30.32,30.12,12,1,14,0.01
2013-12-25,60,50,41,53,45,33,91,82,57,30.32,30.25,14,2,17,0.00
2013-12-26,56,53,49,51,49,46,92,86,81,30.29,30.18,8,1,11,0.00
2013-12-27,59,55,52,55,52,48,92,87,77,30.33,30.22,11,2,15,0.01
2013-12-28,70,64,58,67,61,51,98,90,77,30.29,29.98,10,2,13,0.01
2013-12-29,72,69,59,69,66,56,98,90,82,30.01,29.88,10,2,18,1.48
2013-12-30,67,58,49,56,50,47,93,77,54,30.21,30.01,7,1,11,0.00
2013-12-31,62,58,54,52,50,48,85,75,63,30.34,30.20,6,0,8,0.00
2014-1-1,60,56,53,59,54,50,98,92,85,30.33,30.09,7,0,8,0.62
2014-1-2,65,60,53,64,59,47,99,96,75,30.09,29.76,11,1,19,0.98